Time;durP1;ratioP1;P1;durP2;ratioP2;P2;SDS_P1;SDS_P2;PMS_P1;PMS_P2;Temp;Humidity;BMP_temperature;BMP_pressure;BME280_temperature;BME280_humidity;BME280_pressure;Samples;Min_cycle;Max_cycle;Signal;HPM_P1;HPM_P2
2021/06/25 00:01:19;;;;;;;0.70;0.50;;;17.90;71.50;;;;;;5003790;28;20027;-66
2021/06/25 00:03:44;;;;;;;0.50;0.50;;;17.80;71.40;;;;;;5001059;28;20044;-66
2021/06/25 00:06:10;;;;;;;0.57;0.50;;;17.80;72.50;;;;;;5001001;28;20030;-66
2021/06/25 00:08:35;;;;;;;0.40;0.40;;;17.80;71.60;;;;;;4998694;28;20031;-66
2021/06/25 00:11:02;;;;;;;0.50;0.50;;;17.80;71.80;;;;;;4999830;28;20498;-66
2021/06/25 00:13:28;;;;;;;1.88;0.60;;;17.80;71.80;;;;;;4999856;28;20097;-66
2021/06/25 00:15:54;;;;;;;1.38;0.70;;;17.80;71.80;;;;;;5000597;28;20030;-66
2021/06/25 00:18:20;;;;;;;0.82;0.60;;;17.80;71.80;;;;;;5005586;28;20041;-66
2021/06/25 00:20:46;;;;;;;2.20;0.80;;;17.80;72.00;;;;;;5004786;28;20489;-66
2021/06/25 00:23:11;;;;;;;0.60;0.50;;;17.80;72.10;;;;;;4998217;28;20039;-65
2021/06/25 00:25:37;;;;;;;0.93;0.70;;;17.80;72.10;;;;;;4999955;28;20561;-66
2021/06/25 00:28:03;;;;;;;1.33;0.68;;;17.80;72.00;;;;;;4999024;28;20030;-66
2021/06/25 00:30:28;;;;;;;0.60;0.60;;;17.80;72.00;;;;;;5003647;28;20452;-66
2021/06/25 00:32:54;;;;;;;0.70;0.70;;;17.80;72.00;;;;;;5000247;28;20038;-66
2021/06/25 00:35:20;;;;;;;0.50;0.50;;;17.80;72.00;;;;;;5001225;28;20081;-65
2021/06/25 00:37:46;;;;;;;0.85;0.85;;;17.80;71.90;;;;;;4999171;28;20046;-66
2021/06/25 00:40:13;;;;;;;0.63;0.60;;;17.80;72.00;;;;;;4999374;28;20038;-66
2021/06/25 00:42:39;;;;;;;0.70;0.70;;;17.80;72.00;;;;;;4997575;28;20030;-65
2021/06/25 00:45:13;;;;;;;1.15;0.75;;;17.80;72.00;;;;;;5000157;28;20040;-66
2021/06/25 00:47:41;;;;;;;1.15;0.60;;;17.80;72.30;;;;;;4999781;28;20038;-66
2021/06/25 00:50:07;;;;;;;1.77;1.00;;;17.80;72.00;;;;;;4998974;28;20041;-66
2021/06/25 00:52:33;;;;;;;0.60;0.60;;;17.80;72.00;;;;;;4999234;28;20077;-66
2021/06/25 00:54:59;;;;;;;0.70;0.70;;;17.80;72.10;;;;;;4998227;28;20034;-66
2021/06/25 00:57:24;;;;;;;0.60;0.60;;;17.80;72.10;;;;;;4997779;28;20033;-66
2021/06/25 00:59:50;;;;;;;0.98;0.68;;;17.80;72.00;;;;;;4999592;28;20026;-66
2021/06/25 01:02:15;;;;;;;1.95;0.77;;;17.90;72.10;;;;;;5001006;28;20425;-66
2021/06/25 01:04:41;;;;;;;1.58;0.90;;;17.90;72.00;;;;;;4998993;28;20557;-65
2021/06/25 01:07:07;;;;;;;1.08;0.90;;;17.90;71.80;;;;;;4999826;28;20065;-66
2021/06/25 01:09:35;;;;;;;0.60;0.60;;;17.90;71.80;;;;;;4997792;28;20494;-66
2021/06/25 01:12:04;;;;;;;1.70;0.80;;;17.90;72.00;;;;;;5003118;28;20125;-66
2021/06/25 01:14:31;;;;;;;0.93;0.70;;;17.90;71.90;;;;;;4999325;28;20135;-66
2021/06/25 01:16:56;;;;;;;1.58;0.70;;;17.90;71.90;;;;;;4999175;28;20041;-66
2021/06/25 01:19:22;;;;;;;1.05;0.70;;;17.80;72.00;;;;;;4998000;28;20409;-66
2021/06/25 01:21:47;;;;;;;0.73;0.73;;;17.80;72.10;;;;;;4997888;28;20073;-66
2021/06/25 01:24:13;;;;;;;0.80;0.80;;;17.80;72.00;;;;;;4997342;28;20084;-66
2021/06/25 01:26:39;;;;;;;0.80;0.80;;;17.90;72.10;;;;;;4998751;28;20442;-66
2021/06/25 01:29:04;;;;;;;1.45;0.77;;;17.90;72.00;;;;;;4998266;28;20442;-66
2021/06/25 01:31:30;;;;;;;0.77;0.73;;;17.90;72.10;;;;;;4999899;28;20642;-66
2021/06/25 01:33:56;;;;;;;0.70;0.70;;;17.80;72.00;;;;;;4999314;28;20049;-67
2021/06/25 01:36:21;;;;;;;0.80;0.80;;;17.80;72.10;;;;;;4997408;28;20030;-67
2021/06/25 01:38:48;;;;;;;0.77;0.73;;;17.80;72.10;;;;;;4999125;28;20044;-66
2021/06/25 01:41:14;;;;;;;0.75;0.70;;;17.80;72.10;;;;;;4997799;28;20109;-66
2021/06/25 01:43:41;;;;;;;0.68;0.68;;;17.80;72.20;;;;;;4999097;28;20026;-66
2021/06/25 01:46:08;;;;;;;0.75;0.75;;;17.80;72.30;;;;;;4998999;28;20509;-66
2021/06/25 01:48:34;;;;;;;1.25;0.90;;;17.80;72.30;;;;;;4997904;28;20482;-66
2021/06/25 01:51:00;;;;;;;0.98;0.70;;;17.80;72.40;;;;;;4998931;28;20036;-66
2021/06/25 01:53:26;;;;;;;2.53;0.93;;;17.80;72.30;;;;;;4996723;28;20081;-66
2021/06/25 01:55:52;;;;;;;1.10;1.00;;;17.80;72.40;;;;;;4997199;28;20073;-67
2021/06/25 01:58:19;;;;;;;1.67;0.80;;;17.80;72.50;;;;;;5002374;28;20549;-66
2021/06/25 02:00:58;;;;;;;1.60;1.00;;;17.80;72.50;;;;;;4998065;28;20030;-66
2021/06/25 02:03:24;;;;;;;2.20;1.00;;;17.80;72.80;;;;;;4994500;28;20093;-66
2021/06/25 02:05:50;;;;;;;1.38;1.10;;;17.80;72.50;;;;;;4997170;28;20034;-66
2021/06/25 02:08:16;;;;;;;1.20;1.13;;;17.80;72.50;;;;;;4998555;28;20034;-66
2021/06/25 02:10:41;;;;;;;1.67;0.95;;;17.70;72.50;;;;;;5002224;28;20036;-67
2021/06/25 02:13:07;;;;;;;1.38;1.02;;;17.70;72.50;;;;;;4996364;28;20030;-66
2021/06/25 02:15:32;;;;;;;1.35;1.10;;;17.70;72.60;;;;;;4998896;28;20057;-66
2021/06/25 02:17:58;;;;;;;1.23;1.13;;;17.70;72.70;;;;;;4998547;28;20026;-66
2021/06/25 02:20:24;;;;;;;2.25;1.30;;;17.70;72.80;;;;;;4996265;28;20401;-66
2021/06/25 02:22:49;;;;;;;1.45;1.10;;;17.70;72.90;;;;;;4996958;28;20081;-66
2021/06/25 02:25:15;;;;;;;3.83;1.20;;;17.70;73.00;;;;;;4996900;28;20045;-66
2021/06/25 02:27:41;;;;;;;1.23;1.15;;;17.70;73.90;;;;;;4997248;28;20033;-66
2021/06/25 02:30:10;;;;;;;2.33;1.35;;;17.70;73.00;;;;;;4997333;28;20042;-66
2021/06/25 02:32:35;;;;;;;1.27;1.17;;;17.70;73.20;;;;;;5002168;28;20034;-66
2021/06/25 02:35:02;;;;;;;1.20;1.10;;;17.70;73.10;;;;;;4997211;28;20497;-66
2021/06/25 02:37:27;;;;;;;2.35;1.50;;;17.70;73.20;;;;;;4997344;28;20630;-66
2021/06/25 02:39:53;;;;;;;1.02;1.02;;;17.70;73.20;;;;;;4998411;28;20062;-66
2021/06/25 02:42:19;;;;;;;1.25;1.15;;;17.70;73.20;;;;;;4998765;28;20046;-66
2021/06/25 02:44:45;;;;;;;1.10;1.00;;;17.70;73.30;;;;;;4997682;28;20035;-66
2021/06/25 02:47:10;;;;;;;1.25;1.15;;;17.60;73.20;;;;;;4996536;28;20031;-67
2021/06/25 02:49:36;;;;;;;1.42;1.20;;;17.70;73.40;;;;;;4996792;28;20498;-66
2021/06/25 02:52:02;;;;;;;1.30;1.20;;;17.70;73.40;;;;;;4997924;28;20046;-66
2021/06/25 02:54:27;;;;;;;1.27;1.15;;;17.70;73.40;;;;;;5010993;28;20113;-66
2021/06/25 02:56:53;;;;;;;3.55;1.27;;;17.70;73.30;;;;;;4997112;28;20038;-66
2021/06/25 02:59:18;;;;;;;1.40;1.30;;;17.70;73.50;;;;;;4997480;28;20042;-67
2021/06/25 03:01:44;;;;;;;1.23;1.13;;;17.60;73.50;;;;;;5002250;28;20030;-66
2021/06/25 03:04:10;;;;;;;1.17;1.15;;;17.60;73.80;;;;;;4997316;28;20034;-66
2021/06/25 03:06:35;;;;;;;1.30;1.20;;;17.60;73.80;;;;;;4997168;28;20050;-66
2021/06/25 03:09:01;;;;;;;1.55;1.17;;;17.60;74.00;;;;;;4995937;28;20121;-66
2021/06/25 03:11:27;;;;;;;1.30;1.13;;;17.60;73.90;;;;;;4998311;28;20042;-66
2021/06/25 03:13:52;;;;;;;2.70;1.38;;;17.60;74.00;;;;;;4998995;28;20035;-67
2021/06/25 03:16:18;;;;;;;1.40;1.30;;;17.60;74.00;;;;;;4996886;28;20456;-67
2021/06/25 03:18:43;;;;;;;1.25;1.15;;;17.60;74.00;;;;;;4998371;28;20038;-66
2021/06/25 03:21:09;;;;;;;1.92;1.20;;;17.60;74.10;;;;;;4996368;28;20031;-66
2021/06/25 03:23:35;;;;;;;1.10;1.10;;;17.60;74.00;;;;;;4996860;28;20133;-67
2021/06/25 03:26:00;;;;;;;1.58;1.40;;;17.60;73.90;;;;;;4997026;28;20049;-66
2021/06/25 03:28:26;;;;;;;3.33;1.50;;;17.60;74.70;;;;;;4996074;28;20038;-67
2021/06/25 03:30:51;;;;;;;1.40;1.30;;;17.60;73.70;;;;;;4996322;28;20277;-66
2021/06/25 03:33:17;;;;;;;1.50;1.38;;;17.60;73.70;;;;;;4995152;28;20034;-66
2021/06/25 03:35:43;;;;;;;3.47;1.65;;;17.60;73.80;;;;;;4999054;28;20037;-66
2021/06/25 03:38:09;;;;;;;2.33;1.58;;;17.60;73.80;;;;;;5001131;28;20066;-66
2021/06/25 03:40:36;;;;;;;1.60;1.50;;;17.60;73.80;;;;;;5002041;28;20034;-66
2021/06/25 03:43:03;;;;;;;2.25;1.60;;;17.60;73.70;;;;;;5001511;28;20041;-66
2021/06/25 03:45:29;;;;;;;2.00;1.77;;;17.60;73.70;;;;;;5000693;28;20041;-66
2021/06/25 03:47:55;;;;;;;2.13;1.60;;;17.60;73.70;;;;;;5001081;28;20029;-67
2021/06/25 03:50:21;;;;;;;1.92;1.80;;;17.60;73.70;;;;;;5001656;28;20037;-66
2021/06/25 03:52:46;;;;;;;1.75;1.60;;;17.60;73.70;;;;;;5000098;28;20058;-66
2021/06/25 03:55:12;;;;;;;1.60;1.50;;;17.60;73.90;;;;;;5000688;28;20046;-66
2021/06/25 03:57:39;;;;;;;2.60;1.77;;;17.50;73.80;;;;;;5001704;28;20497;-66
2021/06/25 04:00:08;;;;;;;2.47;1.80;;;17.50;73.90;;;;;;4999273;28;20065;-66
2021/06/25 04:02:35;;;;;;;1.80;1.70;;;17.50;74.00;;;;;;5000482;28;20038;-67
2021/06/25 04:05:01;;;;;;;2.78;1.85;;;17.60;74.00;;;;;;4999565;28;20031;-66
2021/06/25 04:07:27;;;;;;;1.88;1.65;;;17.60;73.90;;;;;;4999811;28;20041;-67
2021/06/25 04:09:53;;;;;;;2.25;2.05;;;17.60;73.90;;;;;;5002177;28;20429;-66
2021/06/25 04:12:19;;;;;;;2.83;1.88;;;17.60;73.90;;;;;;5000983;28;20041;-66
2021/06/25 04:14:45;;;;;;;1.90;1.80;;;17.60;73.90;;;;;;4997529;28;20042;-66
2021/06/25 04:17:11;;;;;;;2.10;2.00;;;17.60;73.90;;;;;;4999152;28;20589;-66
2021/06/25 04:19:36;;;;;;;2.47;2.28;;;17.60;73.80;;;;;;4999666;28;20114;-66
2021/06/25 04:22:02;;;;;;;2.53;2.33;;;17.60;73.70;;;;;;4997423;28;20050;-66
2021/06/25 04:24:28;;;;;;;2.88;2.67;;;17.60;73.70;;;;;;4997791;28;20060;-66
2021/06/25 04:26:54;;;;;;;2.78;2.50;;;17.60;73.70;;;;;;5000645;28;20497;-66
2021/06/25 04:29:19;;;;;;;3.65;2.70;;;17.60;73.70;;;;;;4997483;28;20042;-66
2021/06/25 04:31:51;;;;;;;4.57;3.00;;;17.60;73.70;;;;;;4996446;28;20042;-66
2021/06/25 04:34:17;;;;;;;3.35;3.05;;;17.60;73.60;;;;;;4998854;28;20104;-66
2021/06/25 04:36:42;;;;;;;3.67;3.38;;;17.60;73.50;;;;;;4998094;28;20034;-66
2021/06/25 04:39:08;;;;;;;5.53;3.10;;;17.60;73.70;;;;;;4999451;28;20027;-66
2021/06/25 04:41:35;;;;;;;3.70;3.40;;;17.60;74.60;;;;;;4999214;28;20034;-66
2021/06/25 04:44:02;;;;;;;3.90;3.55;;;17.60;74.40;;;;;;4998512;28;20698;-66
2021/06/25 04:46:28;;;;;;;3.97;3.63;;;17.60;73.60;;;;;;4997495;28;20065;-67
2021/06/25 04:48:54;;;;;;;4.13;3.72;;;17.60;73.50;;;;;;4999424;28;20030;-67
2021/06/25 04:51:19;;;;;;;3.65;3.35;;;17.60;73.50;;;;;;4999090;28;20515;-67
2021/06/25 04:53:45;;;;;;;4.03;3.42;;;17.60;73.50;;;;;;4997322;28;20113;-67
2021/06/25 04:56:11;;;;;;;3.72;3.42;;;17.60;73.50;;;;;;4997065;28;20031;-67
2021/06/25 04:58:37;;;;;;;4.50;4.07;;;17.70;73.50;;;;;;4998458;28;20401;-67
2021/06/25 05:01:03;;;;;;;4.00;3.70;;;17.70;73.60;;;;;;5004325;28;20066;-67
2021/06/25 05:03:29;;;;;;;4.85;4.03;;;17.70;73.50;;;;;;4997312;28;20058;-67
2021/06/25 05:05:54;;;;;;;4.85;4.00;;;17.70;73.50;;;;;;4998290;28;20537;-67
2021/06/25 05:08:20;;;;;;;5.40;3.70;;;17.70;73.50;;;;;;4998306;28;20486;-67
2021/06/25 05:10:46;;;;;;;5.10;3.80;;;17.70;73.40;;;;;;4998401;28;20125;-67
2021/06/25 05:13:13;;;;;;;4.22;3.85;;;17.70;73.40;;;;;;4996860;28;20037;-67
2021/06/25 05:15:39;;;;;;;5.63;4.10;;;17.70;73.50;;;;;;4999104;28;20543;-67
2021/06/25 05:18:19;;;;;;;4.20;3.80;;;17.70;73.50;;;;;;4996973;28;20029;-67
2021/06/25 05:20:46;;;;;;;5.72;3.92;;;17.80;73.80;;;;;;4997731;28;20034;-67
2021/06/25 05:23:13;;;;;;;4.85;4.43;;;17.80;73.50;;;;;;4998906;28;20501;-67
2021/06/25 05:25:40;;;;;;;4.55;4.15;;;17.80;73.70;;;;;;4998486;28;20410;-67
2021/06/25 05:28:06;;;;;;;4.60;4.20;;;17.80;74.00;;;;;;4996890;28;20037;-67
2021/06/25 05:30:32;;;;;;;4.78;4.38;;;17.80;74.10;;;;;;4998593;28;20042;-66
2021/06/25 05:32:59;;;;;;;6.43;5.70;;;17.80;74.20;;;;;;4998938;28;20030;-66
2021/06/25 05:35:30;;;;;;;5.45;4.85;;;17.80;74.40;;;;;;4997764;28;20046;-66
2021/06/25 05:38:07;;;;;;;5.40;4.47;;;17.80;74.50;;;;;;4999079;28;20673;-67
2021/06/25 05:40:33;;;;;;;6.07;5.18;;;17.80;74.40;;;;;;4999638;28;20058;-66
2021/06/25 05:42:58;;;;;;;5.38;4.88;;;17.80;74.40;;;;;;5000083;28;20080;-66
2021/06/25 05:45:24;;;;;;;4.70;4.20;;;17.80;74.60;;;;;;4998726;28;20114;-66
2021/06/25 05:47:50;;;;;;;4.57;4.05;;;17.80;74.80;;;;;;4999200;28;20474;-67
2021/06/25 05:50:16;;;;;;;5.18;4.68;;;17.80;74.70;;;;;;4996323;28;20577;-66
2021/06/25 05:52:45;;;;;;;4.75;4.10;;;17.90;74.90;;;;;;5000938;28;20038;-67
2021/06/25 05:55:11;;;;;;;5.00;4.05;;;17.80;74.70;;;;;;4998969;28;20121;-67
2021/06/25 05:57:37;;;;;;;5.40;4.38;;;17.80;74.70;;;;;;4997582;28;20038;-67
2021/06/25 06:00:07;;;;;;;4.95;4.40;;;17.90;74.60;;;;;;4997347;28;20031;-67
2021/06/25 06:02:33;;;;;;;6.30;4.30;;;17.90;74.60;;;;;;4997512;28;20043;-66
2021/06/25 06:04:58;;;;;;;5.47;4.10;;;17.90;74.80;;;;;;5004407;28;20044;-66
2021/06/25 06:07:26;;;;;;;4.07;3.78;;;17.90;74.80;;;;;;4997956;28;20581;-67
2021/06/25 06:09:52;;;;;;;5.18;4.22;;;18.00;74.60;;;;;;4997800;28;20110;-67
2021/06/25 06:12:21;;;;;;;5.97;4.32;;;18.00;74.60;;;;;;4999219;28;20038;-67
2021/06/25 06:14:48;;;;;;;5.43;3.72;;;18.00;75.50;;;;;;4994642;28;20050;-66
2021/06/25 06:17:15;;;;;;;4.70;3.80;;;18.00;74.40;;;;;;5001567;28;20409;-66
2021/06/25 06:19:44;;;;;;;4.60;4.07;;;18.00;74.30;;;;;;4996010;28;20498;-66
2021/06/25 06:33:11;;;;;;;4.18;3.63;;;18.10;74.30;;;;;;4998293;28;20069;-67
2021/06/25 06:35:39;;;;;;;3.63;3.33;;;18.10;74.40;;;;;;4997993;28;20065;-67
2021/06/25 06:38:05;;;;;;;3.58;3.30;;;18.10;74.60;;;;;;4997334;28;20162;-67
2021/06/25 06:40:31;;;;;;;3.92;3.08;;;18.20;74.70;;;;;;4997279;28;20093;-67
2021/06/25 06:42:57;;;;;;;3.38;3.08;;;18.20;74.50;;;;;;4995001;28;20041;-67
2021/06/25 06:45:23;;;;;;;3.75;3.13;;;18.30;74.60;;;;;;4998219;28;20038;-67
2021/06/25 06:47:49;;;;;;;3.33;2.90;;;18.30;74.50;;;;;;4999396;28;20044;-67
2021/06/25 06:50:15;;;;;;;3.50;3.20;;;18.40;74.60;;;;;;5003850;28;20034;-67
2021/06/25 06:52:46;;;;;;;2.92;2.72;;;18.40;74.20;;;;;;4997424;28;20038;-67
2021/06/25 06:55:14;;;;;;;3.33;2.80;;;18.50;74.20;;;;;;4999498;28;20062;-67
2021/06/25 06:57:40;;;;;;;3.00;2.70;;;18.50;73.80;;;;;;4997741;28;20461;-67
2021/06/25 07:00:07;;;;;;;3.40;3.10;;;18.50;73.50;;;;;;4997627;28;20050;-67
2021/06/25 07:02:36;;;;;;;2.92;2.70;;;18.60;73.50;;;;;;4986683;28;20046;-66
2021/06/25 07:05:03;;;;;;;3.47;2.72;;;18.60;73.30;;;;;;4997323;28;20038;-67
2021/06/25 07:07:28;;;;;;;2.88;2.65;;;18.60;73.20;;;;;;4995980;28;20117;-67
2021/06/25 07:09:54;;;;;;;2.60;2.40;;;18.60;73.00;;;;;;4998569;28;20169;-67
2021/06/25 07:12:19;;;;;;;2.72;2.53;;;18.70;72.80;;;;;;5002039;28;20046;-67
2021/06/25 07:14:45;;;;;;;2.60;2.40;;;18.70;73.00;;;;;;5001563;28;20038;-66
2021/06/25 07:17:11;;;;;;;2.80;2.60;;;18.70;73.00;;;;;;4999673;28;20038;-67
2021/06/25 07:19:36;;;;;;;2.47;2.15;;;18.70;72.70;;;;;;5006076;28;20035;-67
2021/06/25 07:22:02;;;;;;;2.33;2.22;;;18.80;72.60;;;;;;5001202;28;20057;-67
2021/06/25 07:24:28;;;;;;;2.13;1.75;;;18.80;72.60;;;;;;5001242;28;20045;-67
2021/06/25 07:26:53;;;;;;;2.60;2.40;;;18.80;72.70;;;;;;5000698;28;20706;-67
2021/06/25 07:29:19;;;;;;;2.13;1.92;;;18.80;72.60;;;;;;5000704;28;20525;-67
2021/06/25 07:31:45;;;;;;;2.40;2.20;;;18.80;72.80;;;;;;5000519;28;20401;-66
2021/06/25 07:34:10;;;;;;;2.20;2.00;;;18.90;72.80;;;;;;5000573;28;20038;-67
2021/06/25 07:36:36;;;;;;;2.45;2.25;;;18.90;72.60;;;;;;4998457;28;20045;-67
2021/06/25 07:39:02;;;;;;;2.63;2.40;;;19.00;72.40;;;;;;5000899;28;20531;-66
2021/06/25 07:41:27;;;;;;;2.47;2.25;;;19.00;72.40;;;;;;4999721;28;20032;-66
2021/06/25 07:43:53;;;;;;;2.50;2.30;;;19.00;72.60;;;;;;4999532;28;20026;-67
2021/06/25 07:46:19;;;;;;;2.40;2.20;;;19.00;72.90;;;;;;4999865;28;20394;-67
2021/06/25 07:48:44;;;;;;;1.90;1.80;;;19.00;73.00;;;;;;5001228;28;20046;-66
2021/06/25 07:51:10;;;;;;;1.98;1.88;;;19.10;73.30;;;;;;5000459;28;20034;-67
2021/06/25 07:53:35;;;;;;;2.22;2.03;;;19.10;73.20;;;;;;4999260;28;20034;-67
2021/06/25 07:56:01;;;;;;;2.22;2.13;;;19.10;73.20;;;;;;4999703;28;20034;-67
2021/06/25 07:58:27;;;;;;;2.15;1.98;;;19.10;73.00;;;;;;5000533;28;20490;-67
2021/06/25 08:00:52;;;;;;;2.20;2.00;;;19.10;73.00;;;;;;5000821;28;20117;-66
2021/06/25 08:03:18;;;;;;;1.90;1.80;;;19.20;73.00;;;;;;5000019;28;20053;-67
2021/06/25 08:05:44;;;;;;;1.85;1.75;;;19.20;72.70;;;;;;4998663;28;20030;-67
2021/06/25 08:08:09;;;;;;;3.20;1.77;;;19.20;72.60;;;;;;4999295;28;20116;-67
2021/06/25 08:10:35;;;;;;;2.10;1.90;;;19.30;72.50;;;;;;5001133;28;20022;-67
2021/06/25 08:13:01;;;;;;;2.03;1.92;;;19.30;72.70;;;;;;4999540;28;20679;-67
2021/06/25 08:15:27;;;;;;;1.90;1.80;;;19.40;72.80;;;;;;5001010;28;20041;-66
2021/06/25 08:17:52;;;;;;;1.77;1.67;;;19.40;72.80;;;;;;4999798;28;20034;-67
2021/06/25 08:20:18;;;;;;;1.70;1.60;;;19.50;72.20;;;;;;5013032;28;20571;-67
2021/06/25 08:22:44;;;;;;;1.52;1.33;;;19.50;71.70;;;;;;5004206;28;20040;-67
2021/06/25 08:25:11;;;;;;;2.17;1.98;;;19.60;71.80;;;;;;4996747;28;20480;-66
2021/06/25 08:27:36;;;;;;;1.48;1.38;;;19.60;71.70;;;;;;4999141;28;21848;-67
2021/06/25 08:30:04;;;;;;;2.38;1.75;;;19.60;71.60;;;;;;4998831;28;20347;-67
2021/06/25 08:32:30;;;;;;;2.22;1.42;;;19.70;71.60;;;;;;5000042;28;20180;-66
2021/06/25 08:34:56;;;;;;;1.73;1.45;;;19.80;71.40;;;;;;4999391;28;20173;-67
2021/06/25 08:37:21;;;;;;;1.40;1.30;;;19.80;71.10;;;;;;5000124;28;20132;-67
2021/06/25 08:39:47;;;;;;;1.20;1.13;;;19.90;71.00;;;;;;5006251;28;20038;-67
2021/06/25 08:42:14;;;;;;;0.60;0.60;;;20.00;71.10;;;;;;5012715;28;20030;-67
2021/06/25 08:44:40;;;;;;;2.67;0.80;;;20.00;70.40;;;;;;4996399;28;20095;-67
2021/06/25 08:47:07;;;;;;;0.77;0.77;;;20.10;70.20;;;;;;4999482;28;20115;-66
2021/06/25 08:49:35;;;;;;;0.85;0.80;;;20.20;69.60;;;;;;4999315;28;20501;-67
2021/06/25 08:52:02;;;;;;;0.30;0.30;;;20.20;69.00;;;;;;4998752;28;20059;-67
2021/06/25 08:54:27;;;;;;;0.40;0.40;;;20.20;68.70;;;;;;4998778;28;20030;-67
2021/06/25 08:56:54;;;;;;;0.10;0.10;;;20.20;69.00;;;;;;5005797;28;20049;-66
2021/06/25 08:59:20;;;;;;;0.10;0.10;;;20.20;68.60;;;;;;4998791;28;20125;-67
2021/06/25 09:01:47;;;;;;;0.00;0.00;;;20.10;68.40;;;;;;4997678;28;20391;-67
2021/06/25 09:04:33;;;;;;;0.08;0.00;;;20.10;67.40;;;;;;4998838;28;20051;-67
2021/06/25 09:06:59;;;;;;;0.08;0.05;;;20.10;67.20;;;;;;4997678;28;20034;-67
2021/06/25 09:09:46;;;;;;;0.00;0.00;;;20.10;68.30;;;;;;5003997;28;20065;-67
2021/06/25 09:12:21;;;;;;;0.00;0.00;;;20.20;67.80;;;;;;4999411;28;20402;-67
2021/06/25 09:15:17;;;;;;;0.00;0.00;;;20.30;68.00;;;;;;4997901;28;20034;-67
2021/06/25 09:17:52;;;;;;;0.15;0.10;;;20.40;66.20;;;;;;4997701;28;20038;-67
2021/06/25 09:20:36;;;;;;;0.10;0.10;;;20.50;65.70;;;;;;4998102;28;20042;-67
2021/06/25 09:23:15;;;;;;;0.20;0.10;;;20.50;67.40;;;;;;5003176;28;20037;-67
2021/06/25 09:26:06;;;;;;;0.20;0.10;;;20.60;66.50;;;;;;4998953;28;20820;-66
2021/06/25 09:28:40;;;;;;;0.17;0.10;;;20.70;64.80;;;;;;4997088;28;20041;-66
2021/06/25 09:31:27;;;;;;;0.10;0.10;;;20.70;65.30;;;;;;4998737;28;20038;-67
2021/06/25 09:33:55;;;;;;;1.65;0.20;;;20.70;64.80;;;;;;4996817;28;20037;-67
2021/06/25 09:36:31;;;;;;;0.43;0.20;;;20.70;65.30;;;;;;4995855;28;20104;-67
2021/06/25 09:39:05;;;;;;;0.35;0.20;;;20.70;65.90;;;;;;4999632;28;20304;-67
2021/06/25 09:41:31;;;;;;;0.45;0.20;;;20.80;65.70;;;;;;4996370;28;20529;-67
2021/06/25 09:43:59;;;;;;;0.20;0.10;;;20.90;65.20;;;;;;5004646;28;20084;-67
2021/06/25 09:46:29;;;;;;;0.30;0.30;;;20.90;64.60;;;;;;4997972;28;20045;-67
2021/06/25 09:49:24;;;;;;;0.32;0.30;;;21.00;64.50;;;;;;4998526;28;20045;-67
2021/06/25 09:51:59;;;;;;;0.30;0.30;;;21.10;64.10;;;;;;4993839;28;20093;-67
2021/06/25 09:54:26;;;;;;;0.20;0.20;;;21.10;64.30;;;;;;4999002;28;20033;-67
2021/06/25 09:57:07;;;;;;;0.30;0.30;;;21.20;64.70;;;;;;4999683;28;20436;-67
2021/06/25 10:02:17;;;;;;;1.45;0.30;;;21.30;63.00;;;;;;4995948;28;20113;-67
2021/06/25 10:04:47;;;;;;;0.47;0.47;;;21.40;62.40;;;;;;4994244;28;20034;-67
2021/06/25 10:07:16;;;;;;;0.55;0.38;;;21.40;62.60;;;;;;4997730;28;20493;-67
2021/06/25 10:09:43;;;;;;;0.30;0.30;;;21.40;62.70;;;;;;4996046;28;20081;-67
2021/06/25 10:12:12;;;;;;;0.50;0.50;;;21.40;61.70;;;;;;4996096;28;20038;-67
2021/06/25 10:14:39;;;;;;;0.50;0.50;;;21.50;61.70;;;;;;4996869;28;20171;-67
2021/06/25 10:17:08;;;;;;;0.47;0.47;;;21.40;61.90;;;;;;4997873;28;20079;-67
2021/06/25 10:19:37;;;;;;;1.85;0.52;;;21.40;62.20;;;;;;4996866;28;20039;-67
2021/06/25 10:22:05;;;;;;;1.58;0.43;;;21.50;62.10;;;;;;4996107;28;20038;-66
2021/06/25 10:24:33;;;;;;;3.33;0.50;;;21.50;62.20;;;;;;4996342;28;20139;-67
2021/06/25 10:27:01;;;;;;;0.30;0.30;;;21.50;62.50;;;;;;4993878;28;20501;-67
2021/06/25 10:29:28;;;;;;;0.40;0.40;;;21.50;62.40;;;;;;4997199;28;20046;-67
2021/06/25 10:31:55;;;;;;;0.70;0.70;;;21.60;62.20;;;;;;4997268;28;20070;-67
2021/06/25 10:34:21;;;;;;;2.60;0.68;;;21.60;61.90;;;;;;4996981;28;20072;-67
2021/06/25 10:36:50;;;;;;;0.50;0.50;;;21.50;61.90;;;;;;4996705;28;20072;-67
2021/06/25 10:39:15;;;;;;;0.50;0.50;;;21.50;61.40;;;;;;4997353;28;20034;-67
2021/06/25 10:41:56;;;;;;;0.60;0.60;;;21.50;61.30;;;;;;4997169;28;20049;-67
2021/06/25 10:44:35;;;;;;;0.52;0.52;;;21.40;62.30;;;;;;4996918;28;20125;-67
2021/06/25 10:47:25;;;;;;;0.50;0.50;;;21.40;62.70;;;;;;5004174;28;20029;-67
2021/06/25 10:50:03;;;;;;;0.88;0.88;;;21.40;62.40;;;;;;4996071;28;20049;-67
2021/06/25 10:52:32;;;;;;;1.30;0.60;;;21.50;62.90;;;;;;4996595;28;20494;-67
2021/06/25 10:55:13;;;;;;;0.80;0.80;;;21.60;63.00;;;;;;4995282;28;20048;-67
2021/06/25 10:57:50;;;;;;;0.60;0.60;;;21.60;61.90;;;;;;4997031;28;20615;-68
2021/06/25 11:00:26;;;;;;;2.97;0.70;;;21.60;61.50;;;;;;4997978;28;20045;-67
2021/06/25 11:02:53;;;;;;;0.70;0.70;;;21.60;61.30;;;;;;4994979;28;20030;-67
2021/06/25 11:05:25;;;;;;;0.65;0.65;;;21.50;61.90;;;;;;4994928;28;20046;-67
2021/06/25 11:07:55;;;;;;;0.63;0.63;;;21.50;62.20;;;;;;5002934;28;20041;-67
2021/06/25 11:10:31;;;;;;;0.80;0.80;;;21.40;62.40;;;;;;4999169;28;20124;-67
2021/06/25 11:13:12;;;;;;;0.60;0.60;;;21.40;61.90;;;;;;4997082;28;20110;-67
2021/06/25 11:15:39;;;;;;;0.90;0.90;;;21.30;61.80;;;;;;4995231;28;20146;-67
2021/06/25 11:18:19;;;;;;;1.05;0.98;;;21.30;61.90;;;;;;4997602;28;20034;-67
2021/06/25 11:20:57;;;;;;;0.90;0.90;;;21.20;62.40;;;;;;4997393;28;20039;-67
2021/06/25 11:23:26;;;;;;;0.68;0.68;;;21.20;62.10;;;;;;4997358;28;20038;-67
2021/06/25 11:26:13;;;;;;;0.80;0.80;;;21.20;62.60;;;;;;4997052;28;20043;-67
2021/06/25 11:28:42;;;;;;;1.08;0.93;;;21.10;63.10;;;;;;4994826;28;20048;-67
2021/06/25 11:31:14;;;;;;;1.70;1.00;;;21.10;62.80;;;;;;4996565;28;20110;-68
2021/06/25 11:33:56;;;;;;;2.45;1.15;;;21.10;62.50;;;;;;4991878;28;20387;-67
2021/06/25 11:36:33;;;;;;;1.00;1.00;;;21.10;62.90;;;;;;4996949;28;20026;-67
2021/06/25 11:39:07;;;;;;;1.20;1.10;;;21.10;62.40;;;;;;4998028;28;20038;-67
2021/06/25 11:41:45;;;;;;;0.90;0.90;;;21.10;62.90;;;;;;4998405;28;20018;-67
2021/06/25 11:44:17;;;;;;;0.70;0.70;;;21.10;62.10;;;;;;4997768;28;20031;-67
2021/06/25 11:46:59;;;;;;;0.95;0.95;;;21.10;62.30;;;;;;4995841;28;20046;-67
2021/06/25 11:49:28;;;;;;;1.50;1.00;;;21.20;61.70;;;;;;4997304;28;20041;-67
2021/06/25 11:51:54;;;;;;;0.80;0.80;;;21.20;62.70;;;;;;4996140;28;20528;-67
2021/06/25 11:54:21;;;;;;;1.08;1.08;;;21.20;62.60;;;;;;4997517;28;20042;-67
2021/06/25 11:56:49;;;;;;;1.00;0.90;;;21.20;62.20;;;;;;4999598;28;20037;-68
2021/06/25 11:59:15;;;;;;;0.70;0.70;;;21.30;62.60;;;;;;4999844;28;20092;-67
2021/06/25 12:01:50;;;;;;;1.13;1.00;;;21.40;62.20;;;;;;5006944;28;20575;-68
2021/06/25 12:04:40;;;;;;;0.85;0.85;;;21.40;62.00;;;;;;4999937;28;20135;-67
2021/06/25 12:07:11;;;;;;;2.30;1.00;;;21.50;61.20;;;;;;4998756;28;20588;-67
2021/06/25 12:09:51;;;;;;;0.90;0.82;;;21.50;61.60;;;;;;4999322;28;20038;-67
2021/06/25 12:12:23;;;;;;;0.93;0.93;;;21.50;61.50;;;;;;4998159;28;20588;-67
2021/06/25 12:14:52;;;;;;;0.80;0.80;;;21.50;61.10;;;;;;4999537;28;20070;-67
2021/06/25 12:17:18;;;;;;;0.90;0.80;;;21.50;60.70;;;;;;4999190;28;20081;-67
2021/06/25 12:20:05;;;;;;;0.68;0.68;;;21.50;60.70;;;;;;5005280;28;20065;-67
2021/06/25 12:22:31;;;;;;;0.68;0.68;;;21.50;59.90;;;;;;4997911;28;20046;-67
2021/06/25 12:24:57;;;;;;;0.95;0.70;;;21.50;60.60;;;;;;4998819;28;20038;-67
2021/06/25 12:27:38;;;;;;;0.70;0.70;;;21.40;60.50;;;;;;4999594;28;20042;-67
2021/06/25 12:30:11;;;;;;;0.80;0.80;;;21.50;60.60;;;;;;4998753;28;20051;-67
2021/06/25 12:32:37;;;;;;;0.90;0.90;;;21.50;61.10;;;;;;4998909;28;20121;-67
2021/06/25 12:35:04;;;;;;;0.93;0.90;;;21.50;60.90;;;;;;4999348;28;20046;-67
2021/06/25 12:37:50;;;;;;;0.93;0.93;;;21.50;61.10;;;;;;4998145;28;20064;-67
2021/06/25 12:40:35;;;;;;;0.80;0.80;;;21.60;60.90;;;;;;4998860;28;20062;-68
2021/06/25 12:43:01;;;;;;;;;;;21.70;60.50;;;;;;4997708;28;20117;-67
2021/06/25 12:45:36;;;;;;;0.80;0.80;;;21.70;59.40;;;;;;5001380;28;20005;-67
2021/06/25 12:48:08;;;;;;;1.10;1.02;;;21.70;60.10;;;;;;4998199;28;20084;-68
2021/06/25 12:50:36;;;;;;;1.75;0.88;;;21.80;61.20;;;;;;4998986;28;20030;-68
2021/06/25 12:53:32;;;;;;;0.95;0.90;;;21.90;61.40;;;;;;4999639;28;20038;-67
2021/06/25 12:56:00;;;;;;;0.90;0.90;;;22.00;59.10;;;;;;4981955;28;20065;-67
2021/06/25 12:58:29;;;;;;;0.90;0.90;;;22.00;60.20;;;;;;4997488;28;20035;-67
2021/06/25 13:00:58;;;;;;;0.80;0.80;;;22.10;59.60;;;;;;4998424;28;20096;-67
2021/06/25 13:03:26;;;;;;;0.80;0.80;;;22.10;59.50;;;;;;4999026;28;20042;-67
2021/06/25 13:05:52;;;;;;;0.73;0.73;;;22.20;59.40;;;;;;4998182;28;20547;-67
2021/06/25 13:08:23;;;;;;;1.85;0.82;;;22.20;59.10;;;;;;4996199;28;20049;-67